Bootsie B, — WDF9484 — position and weather

sailwx.info

Track history (hours):
 
Tides and Currents Weather Stations Pressure Air Temp Water Temp Dewpoint Dewpoint Depression Visibility Wind Speed Wind Dir Waves Ship Positions

Bootsie B,

Owner: Marquette Transp[ortation Co. LLC, Paducah, KY. More information available from US FCC via Universal Licensing System and Coast Guard Vessel Documentation Center.

Last reported at 2017-Oct-19 11:00 UTC. Time now 2017-Oct-19 11:19 UTC.
Position N 32°08' W 091°00'.

Length 57 m.

Type: Towing. MMSI: 367505630.

Date/timePositionNaut miles runAvg speedWind from/ knotsBaromVisibWave heightAir tempDewpointWater temp
2017-Oct-19 11:00N 32°08' W 091°00'2 4.0
2017-Oct-19 10:30N 32°07' W 091°03'3 5.3
2017-Oct-19 10:00N 32°08' W 091°06'5 4.0
2017-Oct-19 08:40N 32°03' W 091°03'1 5.5
2017-Oct-19 08:30N 32°02' W 091°04'3 5.3
2017-Oct-19 08:00N 31°60' W 091°05'4 4.8
2017-Oct-19 07:12N 31°59' W 091°10'1 5.1
2017-Oct-19 07:00N 31°58' W 091°11'8 3.6
2017-Oct-19 04:54N 31°52' W 091°15'2 4.5
2017-Oct-19 04:30N 31°51' W 091°17'2 4.5
2017-Oct-19 04:01N 31°51' W 091°20'2 4.1
2017-Oct-19 03:30N 31°50' W 091°21'4 5.3
2017-Oct-19 02:50N 31°46' W 091°22'2 4.8
2017-Oct-19 02:30N 31°45' W 091°22'3 5.2
2017-Oct-19 02:00N 31°42' W 091°24'9 5.6
2017-Oct-19 00:29N 31°34' W 091°25'  
2017-Oct-13 20:16N 31°60' W 091°06'2 8.6
2017-Oct-13 20:00N 32°02' W 091°04'5 7.9
2017-Oct-13 19:22N 32°06' W 091°06'3 4.7
2017-Oct-13 18:48N 32°07' W 091°03'2 8.0
2017-Oct-13 18:30N 32°08' W 091°01'5 9.0
2017-Oct-13 18:00N 32°12' W 090°59'4 8.7
2017-Oct-13 17:30N 32°16' W 090°57'3 5.5
2017-Oct-13 17:00N 32°18' W 090°55'0 0.0
2017-Oct-13 16:30N 32°18' W 090°55'0 0.0
2017-Oct-13 16:00N 32°18' W 090°55'0 0.0
2017-Oct-13 15:30N 32°18' W 090°55'0 0.1
2017-Oct-13 15:00N 32°18' W 090°55'2 4.8
2017-Oct-13 14:30N 32°21' W 090°55'3 6.7
2017-Oct-13 14:00N 32°21' W 090°59'3 5.7
2017-Oct-13 13:30N 32°24' W 090°59'4 8.1
2017-Oct-13 13:00N 32°26' W 091°03'4 8.4
2017-Oct-13 12:30N 32°29' W 091°07'0 0.8
2017-Oct-13 12:00N 32°29' W 091°07'0 0.2
2017-Oct-13 11:30N 32°29' W 091°07'2 4.9
2017-Oct-13 11:00N 32°32' W 091°06'4 7.9
2017-Oct-13 10:30N 32°35' W 091°08'4 8.4
2017-Oct-13 10:00N 32°39' W 091°09'6 7.7
2017-Oct-13 09:12N 32°44' W 091°03'4 7.1
2017-Oct-13 08:37N 32°44' W 091°08'0 3.9
2017-Oct-13 08:30N 32°44' W 091°09'4 8.2
2017-Oct-13 08:00N 32°48' W 091°09'5 9.3
2017-Oct-13 07:30N 32°52' W 091°06'8 6.1
2017-Oct-13 06:11N 32°60' W 091°10'3 8.5
2017-Oct-13 05:47N 33°03' W 091°09'3 8.7
2017-Oct-13 05:29N 33°05' W 091°10'  
Track history (hours):
 
Tides and Currents Weather Stations Pressure Air Temp Water Temp Dewpoint Dewpoint Depression Visibility Wind Speed Wind Dir Waves Ship Positions

Bootsie B,

Owner: Marquette Transp[ortation Co. LLC, Paducah, KY. More information available from US FCC via Universal Licensing System and Coast Guard Vessel Documentation Center.

Last reported at 2017-Oct-19 11:00 UTC. Time now 2017-Oct-19 11:19 UTC.
Position N 32°08' W 091°00'.

Length 57 m.

Type: Towing. MMSI: 367505630.

Date/timePositionNaut miles runAvg speedWind from/ knotsBaromVisibWave heightAir tempDewpointWater temp
2017-Oct-19 11:00N 32°08' W 091°00'2 4.0
2017-Oct-19 10:30N 32°07' W 091°03'3 5.3
2017-Oct-19 10:00N 32°08' W 091°06'5 4.0
2017-Oct-19 08:40N 32°03' W 091°03'1 5.5
2017-Oct-19 08:30N 32°02' W 091°04'3 5.3
2017-Oct-19 08:00N 31°60' W 091°05'4 4.8
2017-Oct-19 07:12N 31°59' W 091°10'1 5.1
2017-Oct-19 07:00N 31°58' W 091°11'8 3.6
2017-Oct-19 04:54N 31°52' W 091°15'2 4.5
2017-Oct-19 04:30N 31°51' W 091°17'2 4.5
2017-Oct-19 04:01N 31°51' W 091°20'2 4.1
2017-Oct-19 03:30N 31°50' W 091°21'4 5.3
2017-Oct-19 02:50N 31°46' W 091°22'2 4.8
2017-Oct-19 02:30N 31°45' W 091°22'3 5.2
2017-Oct-19 02:00N 31°42' W 091°24'9 5.6
2017-Oct-19 00:29N 31°34' W 091°25'  
2017-Oct-13 20:16N 31°60' W 091°06'2 8.6
2017-Oct-13 20:00N 32°02' W 091°04'5 7.9
2017-Oct-13 19:22N 32°06' W 091°06'3 4.7
2017-Oct-13 18:48N 32°07' W 091°03'2 8.0
2017-Oct-13 18:30N 32°08' W 091°01'5 9.0
2017-Oct-13 18:00N 32°12' W 090°59'4 8.7
2017-Oct-13 17:30N 32°16' W 090°57'3 5.5
2017-Oct-13 17:00N 32°18' W 090°55'0 0.0
2017-Oct-13 16:30N 32°18' W 090°55'0 0.0
2017-Oct-13 16:00N 32°18' W 090°55'0 0.0
2017-Oct-13 15:30N 32°18' W 090°55'0 0.1
2017-Oct-13 15:00N 32°18' W 090°55'2 4.8
2017-Oct-13 14:30N 32°21' W 090°55'3 6.7
2017-Oct-13 14:00N 32°21' W 090°59'3 5.7
2017-Oct-13 13:30N 32°24' W 090°59'4 8.1
2017-Oct-13 13:00N 32°26' W 091°03'4 8.4
2017-Oct-13 12:30N 32°29' W 091°07'0 0.8
2017-Oct-13 12:00N 32°29' W 091°07'0 0.2
2017-Oct-13 11:30N 32°29' W 091°07'2 4.9
2017-Oct-13 11:00N 32°32' W 091°06'4 7.9
2017-Oct-13 10:30N 32°35' W 091°08'4 8.4
2017-Oct-13 10:00N 32°39' W 091°09'6 7.7
2017-Oct-13 09:12N 32°44' W 091°03'4 7.1
2017-Oct-13 08:37N 32°44' W 091°08'0 3.9
2017-Oct-13 08:30N 32°44' W 091°09'4 8.2
2017-Oct-13 08:00N 32°48' W 091°09'5 9.3
2017-Oct-13 07:30N 32°52' W 091°06'8 6.1
2017-Oct-13 06:11N 32°60' W 091°10'3 8.5
2017-Oct-13 05:47N 33°03' W 091°09'3 8.7
2017-Oct-13 05:29N 33°05' W 091°10'  

Dump ship's entire track history